UAL1754 KMFR-KSFO
Flight info
| Callsign | UAL1754 |
|---|---|
| Flight time | 1h 3m |
| Altitude | 37000 |
| Route | JKSN1 OED MLBEC BDEGA4 |
| Aircraft | A319/M-SDE3FGHIRWY/LB1 |
Departure
| Time | 2026-04-25 20:03 |
|---|---|
| Airport | Rogue Valley International-Medford Airport (KMFR) |
Arrival
| Time | 2026-04-25 21:06 |
|---|---|
| Airport | San Francisco International Airport (KSFO) |
| Time | Latitude | Longitude | Altitude | Speed | Heading |
|---|---|---|---|---|---|
| 2026-04-25 19:20 | 42.36934 | -122.87357 | 1325 ft | 0 kts | 247° |
| 2026-04-25 19:52 | 42.36940 | -122.87339 | 1332 ft | 4 kts | 247° |
| 2026-04-25 19:52 | 42.36950 | -122.87305 | 1327 ft | 4 kts | 247° |
| 2026-04-25 19:52 | 42.36961 | -122.87271 | 1325 ft | 4 kts | 247° |
| 2026-04-25 19:52 | 42.36969 | -122.87245 | 1325 ft | 4 kts | 263° |
| 2026-04-25 19:53 | 42.36964 | -122.87214 | 1325 ft | 4 kts | 320° |
| 2026-04-25 19:53 | 42.36942 | -122.87199 | 1330 ft | 4 kts | 339° |
| 2026-04-25 19:53 | 42.36937 | -122.87196 | 1326 ft | 0 kts | 339° |
| 2026-04-25 19:57 | 42.36945 | -122.87200 | 1329 ft | 4 kts | 339° |
| 2026-04-25 19:57 | 42.36974 | -122.87217 | 1325 ft | 7 kts | 338° |
| 2026-04-25 19:57 | 42.37043 | -122.87252 | 1325 ft | 14 kts | 339° |
| 2026-04-25 19:57 | 42.37155 | -122.87310 | 1326 ft | 20 kts | 339° |
| 2026-04-25 19:58 | 42.37310 | -122.87392 | 1323 ft | 27 kts | 339° |
| 2026-04-25 19:58 | 42.37506 | -122.87493 | 1320 ft | 35 kts | 339° |
| 2026-04-25 19:58 | 42.37750 | -122.87622 | 1318 ft | 40 kts | 338° |
| 2026-04-25 19:58 | 42.38016 | -122.87760 | 1316 ft | 36 kts | 339° |
| 2026-04-25 19:59 | 42.38182 | -122.87848 | 1311 ft | 22 kts | 338° |
| 2026-04-25 19:59 | 42.38320 | -122.87921 | 1303 ft | 24 kts | 338° |
| 2026-04-25 19:59 | 42.38480 | -122.88006 | 1301 ft | 22 kts | 338° |
| 2026-04-25 19:59 | 42.38569 | -122.88039 | 1300 ft | 6 kts | 15° |
| 2026-04-25 20:00 | 42.38580 | -122.88025 | 1300 ft | 0 kts | 54° |
| 2026-04-25 20:01 | 42.38588 | -122.88005 | 1300 ft | 4 kts | 64° |
| 2026-04-25 20:01 | 42.38601 | -122.87959 | 1301 ft | 5 kts | 69° |
| 2026-04-25 20:01 | 42.38600 | -122.87911 | 1301 ft | 4 kts | 134° |
| 2026-04-25 20:02 | 42.38578 | -122.87896 | 1302 ft | 3 kts | 158° |
| 2026-04-25 20:02 | 42.38489 | -122.87850 | 1304 ft | 43 kts | 159° |
| 2026-04-25 20:02 | 42.37938 | -122.87562 | 1316 ft | 124 kts | 159° |
| 2026-04-25 20:02 | 42.36953 | -122.87045 | 1545 ft | 162 kts | 160° |
| 2026-04-25 20:03 | 42.35864 | -122.86622 | 2195 ft | 167 kts | 180° |
| 2026-04-25 20:03 | 42.34795 | -122.87197 | 2809 ft | 172 kts | 227° |
| 2026-04-25 20:03 | 42.34313 | -122.88625 | 3473 ft | 167 kts | 270° |
| 2026-04-25 20:03 | 42.34614 | -122.90178 | 3770 ft | 187 kts | 304° |
| 2026-04-25 20:04 | 42.35710 | -122.91312 | 3972 ft | 216 kts | 332° |
| 2026-04-25 20:04 | 42.37152 | -122.92244 | 4352 ft | 244 kts | 335° |
| 2026-04-25 20:04 | 42.38871 | -122.92820 | 4909 ft | 267 kts | 0° |
| 2026-04-25 20:04 | 42.40724 | -122.92448 | 5900 ft | 267 kts | 7° |
| 2026-04-25 20:05 | 42.42522 | -122.92092 | 7166 ft | 257 kts | 5° |
| 2026-04-25 20:05 | 42.44292 | -122.91788 | 8192 ft | 257 kts | 5° |
| 2026-04-25 20:05 | 42.46065 | -122.91505 | 9196 ft | 256 kts | 5° |
| 2026-04-25 20:05 | 42.47844 | -122.91262 | 10105 ft | 259 kts | 360° |
| 2026-04-25 20:06 | 42.49652 | -122.91476 | 10836 ft | 264 kts | 348° |
| 2026-04-25 20:06 | 42.51438 | -122.92062 | 11639 ft | 266 kts | 342° |
| 2026-04-25 20:06 | 42.53221 | -122.92758 | 12513 ft | 266 kts | 341° |
| 2026-04-25 20:06 | 42.54992 | -122.93439 | 13434 ft | 264 kts | 341° |
| 2026-04-25 20:07 | 42.56777 | -122.94112 | 14169 ft | 269 kts | 341° |
| 2026-04-25 20:07 | 42.58602 | -122.94786 | 14839 ft | 275 kts | 341° |
| 2026-04-25 20:07 | 42.60458 | -122.95460 | 15581 ft | 276 kts | 342° |
| 2026-04-25 20:07 | 42.62297 | -122.96044 | 16451 ft | 274 kts | 343° |
| 2026-04-25 20:08 | 42.64172 | -122.96577 | 17314 ft | 271 kts | 339° |
| 2026-04-25 20:08 | 42.65757 | -122.97872 | 17883 ft | 268 kts | 309° |
| 2026-04-25 20:08 | 42.66534 | -123.00120 | 18518 ft | 267 kts | 278° |
| 2026-04-25 20:08 | 42.66286 | -123.02645 | 19082 ft | 281 kts | 252° |
| 2026-04-25 20:09 | 42.65149 | -123.04868 | 19648 ft | 295 kts | 227° |
| 2026-04-25 20:09 | 42.63310 | -123.06247 | 20227 ft | 315 kts | 204° |
| 2026-04-25 20:09 | 42.61068 | -123.06728 | 20433 ft | 341 kts | 187° |
| 2026-04-25 20:09 | 42.58625 | -123.06746 | 20564 ft | 361 kts | 185° |
| 2026-04-25 20:10 | 42.56053 | -123.06659 | 20684 ft | 379 kts | 183° |
| 2026-04-25 20:10 | 42.53360 | -123.06525 | 20850 ft | 394 kts | 182° |
| 2026-04-25 20:10 | 42.50602 | -123.06379 | 21295 ft | 399 kts | 182° |
| 2026-04-25 20:10 | 42.47810 | -123.06241 | 21811 ft | 403 kts | 183° |
| 2026-04-25 20:11 | 42.44997 | -123.06123 | 22367 ft | 406 kts | 183° |
| 2026-04-25 20:11 | 42.42157 | -123.06023 | 22929 ft | 409 kts | 184° |
| 2026-04-25 20:11 | 42.39299 | -123.05937 | 23468 ft | 413 kts | 184° |
| 2026-04-25 20:11 | 42.36456 | -123.05861 | 23881 ft | 416 kts | 184° |
| 2026-04-25 20:12 | 42.33553 | -123.05783 | 24304 ft | 419 kts | 184° |
| 2026-04-25 20:12 | 42.30623 | -123.05702 | 24726 ft | 422 kts | 184° |
| 2026-04-25 20:12 | 42.27682 | -123.05616 | 25128 ft | 425 kts | 184° |
| 2026-04-25 20:12 | 42.26681 | -123.05587 | 25225 ft | 426 kts | 184° |
| 2026-04-25 20:13 | 42.21707 | -123.05435 | 25859 ft | 433 kts | 184° |
| 2026-04-25 20:13 | 42.18687 | -123.05343 | 26265 ft | 436 kts | 184° |
| 2026-04-25 20:13 | 42.15634 | -123.05251 | 26622 ft | 440 kts | 184° |
| 2026-04-25 20:13 | 42.12565 | -123.05157 | 27024 ft | 443 kts | 183° |
| 2026-04-25 20:14 | 42.09477 | -123.05062 | 27465 ft | 445 kts | 184° |
| 2026-04-25 20:14 | 42.06369 | -123.04970 | 27890 ft | 448 kts | 184° |
| 2026-04-25 20:14 | 42.03242 | -123.04879 | 28277 ft | 451 kts | 184° |
| 2026-04-25 20:14 | 42.00091 | -123.04784 | 28677 ft | 455 kts | 184° |
| 2026-04-25 20:15 | 41.96916 | -123.04690 | 29057 ft | 458 kts | 184° |
| 2026-04-25 20:15 | 41.93720 | -123.04597 | 29396 ft | 462 kts | 183° |
| 2026-04-25 20:15 | 41.90493 | -123.04501 | 29756 ft | 465 kts | 183° |
| 2026-04-25 20:15 | 41.87253 | -123.04404 | 30088 ft | 467 kts | 183° |
| 2026-04-25 20:16 | 41.83998 | -123.04308 | 30401 ft | 468 kts | 183° |
| 2026-04-25 20:16 | 41.80734 | -123.04210 | 30781 ft | 469 kts | 183° |
| 2026-04-25 20:16 | 41.77470 | -123.04111 | 31139 ft | 470 kts | 183° |
| 2026-04-25 20:16 | 41.74197 | -123.04015 | 31472 ft | 471 kts | 183° |
| 2026-04-25 20:17 | 41.70917 | -123.03919 | 31819 ft | 471 kts | 183° |
| 2026-04-25 20:17 | 41.67649 | -123.03822 | 32277 ft | 469 kts | 183° |
| 2026-04-25 20:17 | 41.64400 | -123.03723 | 32795 ft | 465 kts | 183° |
| 2026-04-25 20:17 | 41.61171 | -123.03625 | 33310 ft | 462 kts | 182° |
| 2026-04-25 20:18 | 41.57977 | -123.03527 | 33863 ft | 458 kts | 182° |
| 2026-04-25 20:18 | 41.54798 | -123.03432 | 34312 ft | 455 kts | 182° |
| 2026-04-25 20:18 | 41.51637 | -123.03337 | 34701 ft | 453 kts | 183° |
| 2026-04-25 20:18 | 41.48505 | -123.03244 | 35164 ft | 449 kts | 183° |
| 2026-04-25 20:19 | 41.45388 | -123.03153 | 35545 ft | 447 kts | 183° |
| 2026-04-25 20:19 | 41.42317 | -123.03067 | 35866 ft | 447 kts | 183° |
| 2026-04-25 20:19 | 41.39172 | -123.02979 | 36169 ft | 446 kts | 183° |
| 2026-04-25 20:19 | 41.36067 | -123.02888 | 36457 ft | 446 kts | 183° |
| 2026-04-25 20:20 | 41.32961 | -123.02796 | 36723 ft | 446 kts | 183° |
| 2026-04-25 20:20 | 41.29866 | -123.02704 | 36826 ft | 444 kts | 183° |
| 2026-04-25 20:20 | 41.23723 | -123.02523 | 36853 ft | 440 kts | 183° |
| 2026-04-25 20:21 | 41.17646 | -123.02348 | 36847 ft | 440 kts | 183° |
| 2026-04-25 20:21 | 41.11534 | -123.02176 | 36842 ft | 439 kts | 183° |
| 2026-04-25 20:22 | 41.07450 | -123.02058 | 36846 ft | 438 kts | 183° |
| 2026-04-25 20:22 | 40.99338 | -123.01821 | 36831 ft | 438 kts | 183° |
| 2026-04-25 20:23 | 40.93247 | -123.01645 | 36818 ft | 438 kts | 183° |
| 2026-04-25 20:23 | 40.87159 | -123.01467 | 36823 ft | 437 kts | 183° |
| 2026-04-25 20:24 | 40.81075 | -123.01295 | 36825 ft | 437 kts | 183° |
| 2026-04-25 20:24 | 40.74993 | -123.01124 | 36824 ft | 437 kts | 183° |
| 2026-04-25 20:25 | 40.68917 | -123.00942 | 36821 ft | 436 kts | 182° |
| 2026-04-25 20:25 | 40.62848 | -123.00767 | 36824 ft | 436 kts | 182° |
| 2026-04-25 20:26 | 40.57805 | -123.00628 | 36831 ft | 436 kts | 182° |
| 2026-04-25 20:26 | 40.51740 | -123.00459 | 36822 ft | 435 kts | 182° |
| 2026-04-25 20:27 | 40.45682 | -123.00284 | 36835 ft | 435 kts | 182° |
| 2026-04-25 20:27 | 40.39635 | -123.00112 | 36840 ft | 434 kts | 182° |
| 2026-04-25 20:28 | 40.33594 | -122.99942 | 36851 ft | 434 kts | 182° |
| 2026-04-25 20:28 | 40.27559 | -122.99779 | 36857 ft | 433 kts | 182° |
| 2026-04-25 20:29 | 40.21538 | -122.99611 | 36858 ft | 433 kts | 182° |
| 2026-04-25 20:29 | 40.15518 | -122.99433 | 36851 ft | 432 kts | 182° |
| 2026-04-25 20:30 | 40.09510 | -122.99258 | 36857 ft | 431 kts | 182° |
| 2026-04-25 20:30 | 40.03514 | -122.99092 | 36852 ft | 431 kts | 182° |
| 2026-04-25 20:31 | 39.97521 | -122.98931 | 36838 ft | 431 kts | 182° |
| 2026-04-25 20:31 | 39.91527 | -122.98767 | 36842 ft | 430 kts | 182° |
| 2026-04-25 20:32 | 39.85539 | -122.98600 | 36848 ft | 430 kts | 182° |
| 2026-04-25 20:32 | 39.79557 | -122.98434 | 36853 ft | 430 kts | 182° |
| 2026-04-25 20:33 | 39.73570 | -122.98263 | 36855 ft | 430 kts | 182° |
| 2026-04-25 20:33 | 39.68597 | -122.98125 | 36856 ft | 430 kts | 182° |
| 2026-04-25 20:34 | 39.61598 | -122.97943 | 36858 ft | 430 kts | 182° |
| 2026-04-25 20:34 | 39.55618 | -122.97771 | 36851 ft | 430 kts | 181° |
| 2026-04-25 20:35 | 39.49666 | -122.97593 | 36855 ft | 431 kts | 181° |
| 2026-04-25 20:35 | 39.43680 | -122.97429 | 36861 ft | 430 kts | 181° |
| 2026-04-25 20:36 | 39.37689 | -122.97266 | 36860 ft | 431 kts | 181° |
| 2026-04-25 20:36 | 39.31689 | -122.97095 | 36869 ft | 431 kts | 181° |
| 2026-04-25 20:37 | 39.25662 | -122.96944 | 36106 ft | 438 kts | 181° |
| 2026-04-25 20:37 | 39.22614 | -122.96871 | 35564 ft | 437 kts | 181° |
| 2026-04-25 20:37 | 39.19591 | -122.96793 | 35144 ft | 433 kts | 181° |
| 2026-04-25 20:38 | 39.16587 | -122.96710 | 34729 ft | 429 kts | 181° |
| 2026-04-25 20:38 | 39.13623 | -122.96626 | 34323 ft | 424 kts | 181° |
| 2026-04-25 20:38 | 39.10687 | -122.96545 | 33926 ft | 420 kts | 181° |
| 2026-04-25 20:38 | 39.07775 | -122.96462 | 33454 ft | 416 kts | 181° |
| 2026-04-25 20:39 | 39.04896 | -122.96379 | 32977 ft | 412 kts | 181° |
| 2026-04-25 20:39 | 39.02041 | -122.96296 | 32508 ft | 408 kts | 180° |
| 2026-04-25 20:39 | 38.99219 | -122.96214 | 32043 ft | 404 kts | 180° |
| 2026-04-25 20:39 | 38.97362 | -122.96162 | 31716 ft | 402 kts | 180° |
| 2026-04-25 20:40 | 38.93637 | -122.96060 | 31081 ft | 398 kts | 180° |
| 2026-04-25 20:40 | 38.90883 | -122.95984 | 30614 ft | 395 kts | 180° |
| 2026-04-25 20:40 | 38.88156 | -122.95651 | 30154 ft | 394 kts | 170° |
| 2026-04-25 20:40 | 38.85479 | -122.94901 | 29617 ft | 392 kts | 169° |
| 2026-04-25 20:41 | 38.82823 | -122.94155 | 29050 ft | 391 kts | 169° |
| 2026-04-25 20:41 | 38.80172 | -122.93414 | 28508 ft | 389 kts | 169° |
| 2026-04-25 20:41 | 38.77529 | -122.92676 | 28003 ft | 387 kts | 168° |
| 2026-04-25 20:41 | 38.74903 | -122.91944 | 27518 ft | 385 kts | 169° |
| 2026-04-25 20:42 | 38.72291 | -122.91219 | 27052 ft | 383 kts | 168° |
| 2026-04-25 20:42 | 38.69689 | -122.90499 | 26563 ft | 383 kts | 168° |
| 2026-04-25 20:42 | 38.67089 | -122.89780 | 26132 ft | 382 kts | 168° |
| 2026-04-25 20:42 | 38.64496 | -122.89061 | 25691 ft | 380 kts | 167° |
| 2026-04-25 20:43 | 38.61909 | -122.88345 | 25192 ft | 381 kts | 167° |
| 2026-04-25 20:43 | 38.59323 | -122.87608 | 24717 ft | 381 kts | 166° |
| 2026-04-25 20:43 | 38.56741 | -122.86844 | 24239 ft | 381 kts | 166° |
| 2026-04-25 20:43 | 38.54149 | -122.86070 | 23477 ft | 389 kts | 165° |
| 2026-04-25 20:44 | 38.51492 | -122.85279 | 22687 ft | 395 kts | 165° |
| 2026-04-25 20:44 | 38.48819 | -122.84487 | 22129 ft | 393 kts | 165° |
| 2026-04-25 20:44 | 38.46167 | -122.83704 | 21643 ft | 390 kts | 165° |
| 2026-04-25 20:44 | 38.43538 | -122.82929 | 21168 ft | 386 kts | 165° |
| 2026-04-25 20:45 | 38.40964 | -122.82172 | 20672 ft | 383 kts | 165° |
| 2026-04-25 20:45 | 38.38343 | -122.81399 | 20174 ft | 380 kts | 165° |
| 2026-04-25 20:45 | 38.35776 | -122.80645 | 19662 ft | 377 kts | 165° |
| 2026-04-25 20:45 | 38.33230 | -122.79900 | 19230 ft | 374 kts | 165° |
| 2026-04-25 20:46 | 38.30695 | -122.79162 | 18999 ft | 373 kts | 164° |
| 2026-04-25 20:46 | 38.28204 | -122.78438 | 18909 ft | 371 kts | 165° |
| 2026-04-25 20:46 | 38.25683 | -122.77704 | 18939 ft | 372 kts | 165° |
| 2026-04-25 20:46 | 38.23157 | -122.76967 | 18940 ft | 372 kts | 165° |
| 2026-04-25 20:47 | 38.20634 | -122.76230 | 18813 ft | 372 kts | 165° |
| 2026-04-25 20:47 | 38.18120 | -122.75496 | 18576 ft | 370 kts | 165° |
| 2026-04-25 20:47 | 38.15614 | -122.74763 | 18345 ft | 369 kts | 164° |
| 2026-04-25 20:47 | 38.13117 | -122.74033 | 18099 ft | 368 kts | 165° |
| 2026-04-25 20:48 | 38.10627 | -122.73309 | 17831 ft | 366 kts | 165° |
| 2026-04-25 20:48 | 38.08151 | -122.72591 | 17563 ft | 365 kts | 165° |
| 2026-04-25 20:48 | 38.05681 | -122.71878 | 17298 ft | 363 kts | 165° |
| 2026-04-25 20:48 | 38.03218 | -122.71169 | 17034 ft | 362 kts | 165° |
| 2026-04-25 20:49 | 38.00766 | -122.70462 | 16710 ft | 361 kts | 165° |
| 2026-04-25 20:49 | 37.98328 | -122.69759 | 16275 ft | 358 kts | 165° |
| 2026-04-25 20:49 | 37.95907 | -122.69061 | 15833 ft | 356 kts | 165° |
| 2026-04-25 20:49 | 37.93504 | -122.68366 | 15399 ft | 353 kts | 165° |
| 2026-04-25 20:50 | 37.91164 | -122.67530 | 14974 ft | 350 kts | 157° |
| 2026-04-25 20:50 | 37.88987 | -122.66150 | 14540 ft | 347 kts | 146° |
| 2026-04-25 20:50 | 37.87081 | -122.64305 | 14119 ft | 344 kts | 139° |
| 2026-04-25 20:50 | 37.85256 | -122.62352 | 13752 ft | 340 kts | 140° |
| 2026-04-25 20:51 | 37.83486 | -122.60470 | 13421 ft | 328 kts | 140° |
| 2026-04-25 20:51 | 37.81751 | -122.58631 | 12859 ft | 323 kts | 140° |
| 2026-04-25 20:51 | 37.80034 | -122.56812 | 12337 ft | 319 kts | 140° |
| 2026-04-25 20:51 | 37.78345 | -122.55024 | 11846 ft | 316 kts | 140° |
| 2026-04-25 20:52 | 37.76663 | -122.53248 | 11359 ft | 313 kts | 140° |
| 2026-04-25 20:52 | 37.75558 | -122.52083 | 11093 ft | 310 kts | 140° |
| 2026-04-25 20:52 | 37.73400 | -122.49809 | 10994 ft | 297 kts | 140° |
| 2026-04-25 20:52 | 37.71825 | -122.48137 | 11007 ft | 296 kts | 140° |
| 2026-04-25 20:53 | 37.70254 | -122.46464 | 11009 ft | 295 kts | 140° |
| 2026-04-25 20:53 | 37.68679 | -122.44793 | 11012 ft | 300 kts | 140° |
| 2026-04-25 20:53 | 37.67041 | -122.43103 | 11004 ft | 302 kts | 140° |
| 2026-04-25 20:53 | 37.65449 | -122.41452 | 11008 ft | 296 kts | 140° |
| 2026-04-25 20:54 | 37.63850 | -122.39795 | 11006 ft | 295 kts | 140° |
| 2026-04-25 20:54 | 37.62272 | -122.38159 | 11009 ft | 293 kts | 141° |
| 2026-04-25 20:54 | 37.60656 | -122.36599 | 11006 ft | 292 kts | 147° |
| 2026-04-25 20:54 | 37.58903 | -122.35301 | 10971 ft | 291 kts | 152° |
| 2026-04-25 20:55 | 37.57100 | -122.34151 | 10638 ft | 289 kts | 155° |
| 2026-04-25 20:55 | 37.55297 | -122.33066 | 10384 ft | 284 kts | 155° |
| 2026-04-25 20:55 | 37.53545 | -122.32010 | 10286 ft | 274 kts | 155° |
| 2026-04-25 20:55 | 37.51868 | -122.30940 | 10156 ft | 265 kts | 153° |
| 2026-04-25 20:56 | 37.50263 | -122.29874 | 10041 ft | 257 kts | 153° |
| 2026-04-25 20:56 | 37.48678 | -122.28821 | 9631 ft | 258 kts | 153° |
| 2026-04-25 20:56 | 37.47083 | -122.27755 | 9149 ft | 258 kts | 153° |
| 2026-04-25 20:56 | 37.45515 | -122.26683 | 8681 ft | 257 kts | 153° |
| 2026-04-25 20:57 | 37.43941 | -122.25606 | 8224 ft | 258 kts | 153° |
| 2026-04-25 20:57 | 37.42362 | -122.24522 | 7767 ft | 260 kts | 153° |
| 2026-04-25 20:57 | 37.40794 | -122.23380 | 7309 ft | 261 kts | 144° |
| 2026-04-25 20:57 | 37.39560 | -122.21696 | 6821 ft | 264 kts | 127° |
| 2026-04-25 20:58 | 37.38685 | -122.19653 | 6324 ft | 266 kts | 116° |
| 2026-04-25 20:58 | 37.37942 | -122.17552 | 5804 ft | 264 kts | 116° |
| 2026-04-25 20:58 | 37.37373 | -122.15356 | 5286 ft | 263 kts | 97° |
| 2026-04-25 20:58 | 37.37630 | -122.13088 | 4774 ft | 266 kts | 68° |
| 2026-04-25 20:59 | 37.38681 | -122.11189 | 4255 ft | 267 kts | 41° |
| 2026-04-25 20:59 | 37.40264 | -122.10030 | 3836 ft | 262 kts | 15° |
| 2026-04-25 20:59 | 37.42021 | -122.09804 | 3570 ft | 250 kts | 350° |
| 2026-04-25 20:59 | 37.43642 | -122.10447 | 3314 ft | 242 kts | 327° |
| 2026-04-25 21:00 | 37.45112 | -122.11471 | 3088 ft | 241 kts | 327° |
| 2026-04-25 21:00 | 37.45589 | -122.11800 | 3049 ft | 241 kts | 327° |
| 2026-04-25 21:00 | 37.49395 | -122.14403 | 3015 ft | 221 kts | 326° |
| 2026-04-25 21:01 | 37.50702 | -122.15293 | 3018 ft | 206 kts | 327° |
| 2026-04-25 21:01 | 37.51921 | -122.16126 | 3019 ft | 195 kts | 327° |
| 2026-04-25 21:01 | 37.53065 | -122.16960 | 3023 ft | 190 kts | 320° |
| 2026-04-25 21:01 | 37.53955 | -122.18171 | 3049 ft | 180 kts | 298° |
| 2026-04-25 21:02 | 37.54523 | -122.19492 | 2932 ft | 167 kts | 294° |
| 2026-04-25 21:02 | 37.55051 | -122.20741 | 2739 ft | 160 kts | 293° |
| 2026-04-25 21:02 | 37.55564 | -122.21957 | 2544 ft | 154 kts | 295° |
| 2026-04-25 21:02 | 37.56050 | -122.23110 | 2338 ft | 143 kts | 294° |
| 2026-04-25 21:03 | 37.56494 | -122.24160 | 2155 ft | 130 kts | 293° |
| 2026-04-25 21:03 | 37.56911 | -122.25151 | 1973 ft | 127 kts | 295° |
| 2026-04-25 21:03 | 37.57320 | -122.26122 | 1816 ft | 124 kts | 294° |
| 2026-04-25 21:03 | 37.57720 | -122.27072 | 1647 ft | 122 kts | 294° |
| 2026-04-25 21:04 | 37.58118 | -122.28021 | 1479 ft | 123 kts | 294° |
| 2026-04-25 21:04 | 37.58533 | -122.28963 | 1305 ft | 123 kts | 296° |
| 2026-04-25 21:04 | 37.58936 | -122.29914 | 1140 ft | 123 kts | 294° |
| 2026-04-25 21:04 | 37.59334 | -122.30874 | 948 ft | 124 kts | 293° |
| 2026-04-25 21:05 | 37.59732 | -122.31833 | 753 ft | 124 kts | 294° |
| 2026-04-25 21:05 | 37.60138 | -122.32792 | 588 ft | 124 kts | 294° |
| 2026-04-25 21:05 | 37.60537 | -122.33747 | 427 ft | 123 kts | 292° |
| 2026-04-25 21:05 | 37.60926 | -122.34695 | 256 ft | 121 kts | 293° |
| 2026-04-25 21:06 | 37.61322 | -122.35640 | 98 ft | 122 kts | 293° |
| 2026-04-25 21:06 | 37.61700 | -122.36561 | 23 ft | 109 kts | 296° |
| 2026-04-25 21:06 | 37.61948 | -122.37133 | 23 ft | 50 kts | 297° |
| 2026-04-25 21:06 | 37.61998 | -122.37258 | 22 ft | 45 kts | 297° |
| 2026-04-25 21:07 | 37.62223 | -122.37833 | 22 ft | 41 kts | 285° |
| 2026-04-25 21:07 | 37.62227 | -122.38085 | 23 ft | 13 kts | 266° |
| 2026-04-25 21:07 | 37.62191 | -122.38192 | 24 ft | 16 kts | 210° |
| 2026-04-25 21:07 | 37.62090 | -122.38257 | 22 ft | 15 kts | 207° |
| 2026-04-25 21:08 | 37.62022 | -122.38298 | 22 ft | 4 kts | 188° |
| 2026-04-25 21:08 | 37.61991 | -122.38261 | 22 ft | 8 kts | 117° |
| 2026-04-25 21:08 | 37.61963 | -122.38194 | 22 ft | 5 kts | 118° |
| 2026-04-25 21:08 | 37.61944 | -122.38150 | 23 ft | 7 kts | 118° |
| 2026-04-25 21:09 | 37.61872 | -122.38018 | 22 ft | 11 kts | 142° |
| 2026-04-25 21:09 | 37.61811 | -122.37964 | 22 ft | 11 kts | 153° |
| 2026-04-25 21:09 | 37.61753 | -122.37949 | 23 ft | 4 kts | 192° |
| 2026-04-25 21:10 | 37.61745 | -122.37970 | 22 ft | 3 kts | 266° |
| 2026-04-25 21:10 | 37.61749 | -122.38009 | 22 ft | 4 kts | 279° |
| 2026-04-25 21:10 | 37.61752 | -122.38030 | 22 ft | 3 kts | 279° |
| 2026-04-25 21:10 | 37.61753 | -122.38039 | 24 ft | 0 kts | 280° |